sensor_id;sensor_type;location;lat;lon;timestamp;temperature;humidity
37646;DHT22;23489;49.600;6.138;2023-02-24T00:01:38;7.20;99.90
37646;DHT22;23489;49.600;6.138;2023-02-24T00:04:07;7.20;99.90
37646;DHT22;23489;49.600;6.138;2023-02-24T00:06:35;7.20;99.90
37646;DHT22;23489;49.600;6.138;2023-02-24T00:09:06;7.20;99.90
37646;DHT22;23489;49.600;6.138;2023-02-24T00:11:42;7.20;99.90
37646;DHT22;23489;49.600;6.138;2023-02-24T00:14:11;7.20;99.90
37646;DHT22;23489;49.600;6.138;2023-02-24T00:16:42;7.20;99.90
37646;DHT22;23489;49.600;6.138;2023-02-24T00:19:13;7.20;99.90
37646;DHT22;23489;49.600;6.138;2023-02-24T00:21:39;7.20;99.90
37646;DHT22;23489;49.600;6.138;2023-02-24T00:24:05;7.20;99.90
37646;DHT22;23489;49.600;6.138;2023-02-24T00:26:31;7.20;99.90
37646;DHT22;23489;49.600;6.138;2023-02-24T00:28:58;7.10;99.90
37646;DHT22;23489;49.600;6.138;2023-02-24T00:31:25;7.20;99.90
37646;DHT22;23489;49.600;6.138;2023-02-24T00:33:59;7.20;99.90
37646;DHT22;23489;49.600;6.138;2023-02-24T00:36:27;7.10;99.90
37646;DHT22;23489;49.600;6.138;2023-02-24T00:38:58;7.10;99.90
37646;DHT22;23489;49.600;6.138;2023-02-24T00:41:27;7.10;99.90
37646;DHT22;23489;49.600;6.138;2023-02-24T00:44:00;7.10;99.90
37646;DHT22;23489;49.600;6.138;2023-02-24T00:46:36;7.10;99.90
37646;DHT22;23489;49.600;6.138;2023-02-24T00:49:03;7.10;99.90
37646;DHT22;23489;49.600;6.138;2023-02-24T00:51:33;7.10;99.90
37646;DHT22;23489;49.600;6.138;2023-02-24T00:54:01;7.10;99.90
37646;DHT22;23489;49.600;6.138;2023-02-24T00:56:28;7.10;99.90
37646;DHT22;23489;49.600;6.138;2023-02-24T00:58:55;7.10;99.90
37646;DHT22;23489;49.600;6.138;2023-02-24T01:01:25;7.10;99.90
37646;DHT22;23489;49.600;6.138;2023-02-24T01:03:52;7.10;99.90
37646;DHT22;23489;49.600;6.138;2023-02-24T01:06:24;7.10;99.90
37646;DHT22;23489;49.600;6.138;2023-02-24T01:08:52;7.10;99.90
37646;DHT22;23489;49.600;6.138;2023-02-24T01:11:26;7.00;99.90
37646;DHT22;23489;49.600;6.138;2023-02-24T01:14:14;7.10;99.90
37646;DHT22;23489;49.600;6.138;2023-02-24T01:16:41;7.10;99.90
37646;DHT22;23489;49.600;6.138;2023-02-24T01:19:09;7.00;99.90
37646;DHT22;23489;49.600;6.138;2023-02-24T01:21:37;7.00;99.90
37646;DHT22;23489;49.600;6.138;2023-02-24T01:24:03;7.00;99.90
37646;DHT22;23489;49.600;6.138;2023-02-24T01:26:28;7.00;99.90
37646;DHT22;23489;49.600;6.138;2023-02-24T01:28:55;7.00;99.90
37646;DHT22;23489;49.600;6.138;2023-02-24T01:31:22;7.00;99.90
37646;DHT22;23489;49.600;6.138;2023-02-24T01:33:50;6.90;99.90
37646;DHT22;23489;49.600;6.138;2023-02-24T01:36:22;6.90;99.90
37646;DHT22;23489;49.600;6.138;2023-02-24T01:38:48;6.90;99.90
37646;DHT22;23489;49.600;6.138;2023-02-24T01:41:22;6.90;99.90
37646;DHT22;23489;49.600;6.138;2023-02-24T01:44:00;6.90;99.90
37646;DHT22;23489;49.600;6.138;2023-02-24T01:46:28;6.90;99.90
37646;DHT22;23489;49.600;6.138;2023-02-24T01:49:41;6.90;99.90
37646;DHT22;23489;49.600;6.138;2023-02-24T01:51:53;6.90;99.90
37646;DHT22;23489;49.600;6.138;2023-02-24T01:54:24;6.90;99.90
37646;DHT22;23489;49.600;6.138;2023-02-24T01:56:52;6.90;99.90
37646;DHT22;23489;49.600;6.138;2023-02-24T01:59:19;6.90;99.90
37646;DHT22;23489;49.600;6.138;2023-02-24T02:01:46;6.90;99.90
37646;DHT22;23489;49.600;6.138;2023-02-24T02:04:21;6.90;99.90
37646;DHT22;23489;49.600;6.138;2023-02-24T02:06:47;6.90;99.90
37646;DHT22;23489;49.600;6.138;2023-02-24T02:09:14;6.90;99.90
37646;DHT22;23489;49.600;6.138;2023-02-24T02:11:43;6.90;99.90
37646;DHT22;23489;49.600;6.138;2023-02-24T02:14:22;6.90;99.90
37646;DHT22;23489;49.600;6.138;2023-02-24T02:42:07;6.80;99.90
37646;DHT22;23489;49.600;6.138;2023-02-24T02:45:01;6.80;99.90
37646;DHT22;23489;49.600;6.138;2023-02-24T02:47:52;6.80;99.90
37646;DHT22;23489;49.600;6.138;2023-02-24T02:53:17;6.70;99.90
37646;DHT22;23489;49.600;6.138;2023-02-24T02:55:45;6.70;99.90
37646;DHT22;23489;49.600;6.138;2023-02-24T02:58:18;6.70;99.90
37646;DHT22;23489;49.600;6.138;2023-02-24T03:00:51;6.70;99.90
37646;DHT22;23489;49.600;6.138;2023-02-24T03:03:32;6.70;99.90
37646;DHT22;23489;49.600;6.138;2023-02-24T03:06:09;6.70;99.90
37646;DHT22;23489;49.600;6.138;2023-02-24T03:08:39;6.70;99.90
37646;DHT22;23489;49.600;6.138;2023-02-24T03:11:11;6.60;99.90
37646;DHT22;23489;49.600;6.138;2023-02-24T03:13:41;6.60;99.90
37646;DHT22;23489;49.600;6.138;2023-02-24T03:16:09;6.60;99.90
37646;DHT22;23489;49.600;6.138;2023-02-24T03:18:47;6.50;99.90
37646;DHT22;23489;49.600;6.138;2023-02-24T03:21:23;6.50;99.90
37646;DHT22;23489;49.600;6.138;2023-02-24T03:23:53;6.50;99.90
37646;DHT22;23489;49.600;6.138;2023-02-24T03:29:15;6.50;99.90
37646;DHT22;23489;49.600;6.138;2023-02-24T03:31:54;6.50;99.90
37646;DHT22;23489;49.600;6.138;2023-02-24T03:34:33;6.50;99.90
37646;DHT22;23489;49.600;6.138;2023-02-24T03:37:02;6.50;99.90
37646;DHT22;23489;49.600;6.138;2023-02-24T03:39:29;6.50;99.90
37646;DHT22;23489;49.600;6.138;2023-02-24T03:42:12;6.50;99.90
37646;DHT22;23489;49.600;6.138;2023-02-24T03:44:39;6.50;99.90
37646;DHT22;23489;49.600;6.138;2023-02-24T03:47:05;6.60;99.90
37646;DHT22;23489;49.600;6.138;2023-02-24T03:49:34;6.50;99.90
37646;DHT22;23489;49.600;6.138;2023-02-24T04:00:49;6.60;99.90
37646;DHT22;23489;49.600;6.138;2023-02-24T04:03:27;6.50;99.90
37646;DHT22;23489;49.600;6.138;2023-02-24T04:06:19;6.60;99.90
37646;DHT22;23489;49.600;6.138;2023-02-24T04:11:34;6.60;99.90
37646;DHT22;23489;49.600;6.138;2023-02-24T04:14:10;6.60;99.90
37646;DHT22;23489;49.600;6.138;2023-02-24T04:19:34;6.60;99.90
37646;DHT22;23489;49.600;6.138;2023-02-24T04:22:05;6.60;99.90
37646;DHT22;23489;49.600;6.138;2023-02-24T04:24:34;6.60;99.90
37646;DHT22;23489;49.600;6.138;2023-02-24T04:27:04;6.60;99.90
37646;DHT22;23489;49.600;6.138;2023-02-24T04:29:37;6.60;99.90
37646;DHT22;23489;49.600;6.138;2023-02-24T04:32:08;6.60;99.90
37646;DHT22;23489;49.600;6.138;2023-02-24T04:34:38;6.50;99.90
37646;DHT22;23489;49.600;6.138;2023-02-24T04:37:04;6.50;99.90
37646;DHT22;23489;49.600;6.138;2023-02-24T04:39:32;6.50;99.90
37646;DHT22;23489;49.600;6.138;2023-02-24T04:41:59;6.50;99.90
37646;DHT22;23489;49.600;6.138;2023-02-24T04:44:26;6.50;99.90
37646;DHT22;23489;49.600;6.138;2023-02-24T04:46:52;6.50;99.90
37646;DHT22;23489;49.600;6.138;2023-02-24T04:49:18;6.50;99.90
37646;DHT22;23489;49.600;6.138;2023-02-24T04:51:44;6.50;99.90
37646;DHT22;23489;49.600;6.138;2023-02-24T04:54:12;6.50;99.90
37646;DHT22;23489;49.600;6.138;2023-02-24T04:56:49;6.60;99.90
37646;DHT22;23489;49.600;6.138;2023-02-24T04:59:16;6.50;99.90
37646;DHT22;23489;49.600;6.138;2023-02-24T05:01:42;6.50;99.90
37646;DHT22;23489;49.600;6.138;2023-02-24T05:04:10;6.50;99.90
37646;DHT22;23489;49.600;6.138;2023-02-24T05:06:36;6.40;99.90
37646;DHT22;23489;49.600;6.138;2023-02-24T05:09:09;6.40;99.90
37646;DHT22;23489;49.600;6.138;2023-02-24T05:11:42;6.30;99.90
37646;DHT22;23489;49.600;6.138;2023-02-24T05:14:12;6.30;99.90
37646;DHT22;23489;49.600;6.138;2023-02-24T05:16:45;6.30;99.90
37646;DHT22;23489;49.600;6.138;2023-02-24T05:19:13;6.30;99.90
37646;DHT22;23489;49.600;6.138;2023-02-24T05:21:58;6.30;99.90
37646;DHT22;23489;49.600;6.138;2023-02-24T05:24:25;6.30;99.90
37646;DHT22;23489;49.600;6.138;2023-02-24T05:26:53;6.20;99.90
37646;DHT22;23489;49.600;6.138;2023-02-24T05:29:26;6.20;99.90
37646;DHT22;23489;49.600;6.138;2023-02-24T05:31:54;6.20;99.90
37646;DHT22;23489;49.600;6.138;2023-02-24T05:34:24;6.20;99.90
37646;DHT22;23489;49.600;6.138;2023-02-24T05:36:50;6.20;99.90
37646;DHT22;23489;49.600;6.138;2023-02-24T05:39:18;6.30;99.90
37646;DHT22;23489;49.600;6.138;2023-02-24T05:41:46;6.30;99.90
37646;DHT22;23489;49.600;6.138;2023-02-24T05:44:16;6.30;99.90
37646;DHT22;23489;49.600;6.138;2023-02-24T05:46:48;6.30;99.90
37646;DHT22;23489;49.600;6.138;2023-02-24T05:49:17;6.30;99.90
37646;DHT22;23489;49.600;6.138;2023-02-24T05:51:52;6.30;99.90
37646;DHT22;23489;49.600;6.138;2023-02-24T05:54:27;6.20;99.90
37646;DHT22;23489;49.600;6.138;2023-02-24T05:57:00;6.20;99.90
37646;DHT22;23489;49.600;6.138;2023-02-24T05:59:26;6.20;99.90
37646;DHT22;23489;49.600;6.138;2023-02-24T06:01:58;6.20;99.90
37646;DHT22;23489;49.600;6.138;2023-02-24T06:04:25;6.20;99.90
37646;DHT22;23489;49.600;6.138;2023-02-24T06:07:05;6.20;99.90
37646;DHT22;23489;49.600;6.138;2023-02-24T06:09:32;6.20;99.90
37646;DHT22;23489;49.600;6.138;2023-02-24T06:11:59;6.20;99.90
37646;DHT22;23489;49.600;6.138;2023-02-24T06:14:24;6.20;99.90
37646;DHT22;23489;49.600;6.138;2023-02-24T06:16:50;6.20;99.90
37646;DHT22;23489;49.600;6.138;2023-02-24T06:19:15;6.20;99.90
37646;DHT22;23489;49.600;6.138;2023-02-24T06:21:41;6.20;99.90
37646;DHT22;23489;49.600;6.138;2023-02-24T06:24:12;6.20;99.90
37646;DHT22;23489;49.600;6.138;2023-02-24T06:26:42;6.10;99.90
37646;DHT22;23489;49.600;6.138;2023-02-24T06:29:16;6.20;99.90
37646;DHT22;23489;49.600;6.138;2023-02-24T06:31:42;6.20;99.90
37646;DHT22;23489;49.600;6.138;2023-02-24T06:34:09;6.20;99.90
37646;DHT22;23489;49.600;6.138;2023-02-24T06:36:36;6.20;99.90
37646;DHT22;23489;49.600;6.138;2023-02-24T06:39:03;6.20;99.90
37646;DHT22;23489;49.600;6.138;2023-02-24T06:41:33;6.20;99.90
37646;DHT22;23489;49.600;6.138;2023-02-24T06:43:59;6.20;99.90
37646;DHT22;23489;49.600;6.138;2023-02-24T06:46:25;6.10;99.90
37646;DHT22;23489;49.600;6.138;2023-02-24T06:48:50;6.20;99.90
37646;DHT22;23489;49.600;6.138;2023-02-24T06:51:16;6.10;99.90
37646;DHT22;23489;49.600;6.138;2023-02-24T06:53:42;6.10;99.90
37646;DHT22;23489;49.600;6.138;2023-02-24T06:56:14;6.10;99.90
37646;DHT22;23489;49.600;6.138;2023-02-24T06:58:45;6.10;99.90
37646;DHT22;23489;49.600;6.138;2023-02-24T07:01:12;6.20;99.90
37646;DHT22;23489;49.600;6.138;2023-02-24T07:03:39;6.20;99.90
37646;DHT22;23489;49.600;6.138;2023-02-24T07:06:06;6.20;99.90
37646;DHT22;23489;49.600;6.138;2023-02-24T07:08:45;6.20;99.90
37646;DHT22;23489;49.600;6.138;2023-02-24T07:11:12;6.30;99.90
37646;DHT22;23489;49.600;6.138;2023-02-24T07:13:39;6.30;99.90
37646;DHT22;23489;49.600;6.138;2023-02-24T07:16:05;6.30;99.90
37646;DHT22;23489;49.600;6.138;2023-02-24T07:18:35;6.30;99.90
37646;DHT22;23489;49.600;6.138;2023-02-24T07:21:05;6.40;99.90
37646;DHT22;23489;49.600;6.138;2023-02-24T07:23:39;6.50;99.90
37646;DHT22;23489;49.600;6.138;2023-02-24T07:26:13;6.50;99.90
37646;DHT22;23489;49.600;6.138;2023-02-24T07:28:40;6.60;99.90
37646;DHT22;23489;49.600;6.138;2023-02-24T07:31:08;6.60;99.90
37646;DHT22;23489;49.600;6.138;2023-02-24T07:33:35;6.60;99.90
37646;DHT22;23489;49.600;6.138;2023-02-24T07:36:07;6.60;99.90
37646;DHT22;23489;49.600;6.138;2023-02-24T07:38:36;6.70;99.90
37646;DHT22;23489;49.600;6.138;2023-02-24T07:41:03;6.60;99.90
37646;DHT22;23489;49.600;6.138;2023-02-24T07:43:35;6.60;99.90
37646;DHT22;23489;49.600;6.138;2023-02-24T07:46:08;6.70;99.90
37646;DHT22;23489;49.600;6.138;2023-02-24T07:48:36;6.80;99.90
37646;DHT22;23489;49.600;6.138;2023-02-24T07:51:09;6.80;99.90
37646;DHT22;23489;49.600;6.138;2023-02-24T07:53:36;6.90;99.90
37646;DHT22;23489;49.600;6.138;2023-02-24T07:56:09;7.00;99.90
37646;DHT22;23489;49.600;6.138;2023-02-24T07:58:41;7.10;99.90
37646;DHT22;23489;49.600;6.138;2023-02-24T08:01:09;7.10;99.90
37646;DHT22;23489;49.600;6.138;2023-02-24T08:04:13;7.20;99.90
37646;DHT22;23489;49.600;6.138;2023-02-24T08:06:41;7.20;99.90
37646;DHT22;23489;49.600;6.138;2023-02-24T08:09:13;7.30;99.90
37646;DHT22;23489;49.600;6.138;2023-02-24T08:11:50;7.40;99.90
37646;DHT22;23489;49.600;6.138;2023-02-24T08:14:19;7.40;99.90
37646;DHT22;23489;49.600;6.138;2023-02-24T08:16:52;7.40;99.90
37646;DHT22;23489;49.600;6.138;2023-02-24T08:19:25;7.50;99.90
37646;DHT22;23489;49.600;6.138;2023-02-24T08:22:00;7.50;99.90
37646;DHT22;23489;49.600;6.138;2023-02-24T08:24:57;7.50;99.90
37646;DHT22;23489;49.600;6.138;2023-02-24T08:27:31;7.50;99.90
37646;DHT22;23489;49.600;6.138;2023-02-24T08:29:58;7.50;99.90
37646;DHT22;23489;49.600;6.138;2023-02-24T08:32:41;7.40;99.90
37646;DHT22;23489;49.600;6.138;2023-02-24T08:35:15;7.40;99.90
37646;DHT22;23489;49.600;6.138;2023-02-24T08:37:43;7.40;99.90
37646;DHT22;23489;49.600;6.138;2023-02-24T08:43:10;7.40;99.90
37646;DHT22;23489;49.600;6.138;2023-02-24T08:45:59;7.30;99.90
37646;DHT22;23489;49.600;6.138;2023-02-24T08:51:12;7.20;99.90
37646;DHT22;23489;49.600;6.138;2023-02-24T08:53:43;7.20;99.90
37646;DHT22;23489;49.600;6.138;2023-02-24T08:56:12;7.30;99.90
37646;DHT22;23489;49.600;6.138;2023-02-24T08:58:44;7.40;99.90
37646;DHT22;23489;49.600;6.138;2023-02-24T09:01:17;7.40;99.90
37646;DHT22;23489;49.600;6.138;2023-02-24T09:03:47;7.50;99.90
37646;DHT22;23489;49.600;6.138;2023-02-24T09:06:18;7.60;99.90
37646;DHT22;23489;49.600;6.138;2023-02-24T09:08:52;7.60;99.90
37646;DHT22;23489;49.600;6.138;2023-02-24T09:11:39;7.60;99.90
37646;DHT22;23489;49.600;6.138;2023-02-24T09:14:16;7.70;99.90
37646;DHT22;23489;49.600;6.138;2023-02-24T09:16:47;7.80;99.90
37646;DHT22;23489;49.600;6.138;2023-02-24T09:19:43;8.00;99.90
37646;DHT22;23489;49.600;6.138;2023-02-24T09:22:18;8.00;99.90
37646;DHT22;23489;49.600;6.138;2023-02-24T09:25:09;7.90;99.90
37646;DHT22;23489;49.600;6.138;2023-02-24T09:27:48;8.00;99.90
37646;DHT22;23489;49.600;6.138;2023-02-24T09:30:27;8.00;99.90
37646;DHT22;23489;49.600;6.138;2023-02-24T09:33:06;8.10;99.90
37646;DHT22;23489;49.600;6.138;2023-02-24T09:35:35;8.30;99.90
37646;DHT22;23489;49.600;6.138;2023-02-24T09:38:06;8.60;99.90
37646;DHT22;23489;49.600;6.138;2023-02-24T09:40:37;8.50;99.90
37646;DHT22;23489;49.600;6.138;2023-02-24T09:43:12;8.60;99.90
37646;DHT22;23489;49.600;6.138;2023-02-24T09:46:05;8.80;99.90
37646;DHT22;23489;49.600;6.138;2023-02-24T09:49:01;8.80;99.90
37646;DHT22;23489;49.600;6.138;2023-02-24T09:51:31;8.90;99.90
37646;DHT22;23489;49.600;6.138;2023-02-24T09:54:14;8.90;99.90
37646;DHT22;23489;49.600;6.138;2023-02-24T09:57:26;8.60;99.90
37646;DHT22;23489;49.600;6.138;2023-02-24T10:02:44;9.00;99.90
37646;DHT22;23489;49.600;6.138;2023-02-24T10:05:31;8.90;99.90
37646;DHT22;23489;49.600;6.138;2023-02-24T10:08:07;9.10;99.90
37646;DHT22;23489;49.600;6.138;2023-02-24T10:10:38;9.70;99.90
37646;DHT22;23489;49.600;6.138;2023-02-24T10:13:26;10.20;99.90
37646;DHT22;23489;49.600;6.138;2023-02-24T10:15:59;10.50;99.90
37646;DHT22;23489;49.600;6.138;2023-02-24T10:21:29;10.60;99.90
37646;DHT22;23489;49.600;6.138;2023-02-24T10:24:33;10.90;99.90
37646;DHT22;23489;49.600;6.138;2023-02-24T10:27:16;11.20;99.90
37646;DHT22;23489;49.600;6.138;2023-02-24T10:32:56;10.70;99.90
37646;DHT22;23489;49.600;6.138;2023-02-24T10:35:24;10.90;99.90
37646;DHT22;23489;49.600;6.138;2023-02-24T10:37:52;10.80;99.90
37646;DHT22;23489;49.600;6.138;2023-02-24T10:40:19;11.10;99.90
37646;DHT22;23489;49.600;6.138;2023-02-24T10:43:08;11.70;99.90
37646;DHT22;23489;49.600;6.138;2023-02-24T10:45:38;12.20;99.90
37646;DHT22;23489;49.600;6.138;2023-02-24T10:48:17;12.10;99.90
37646;DHT22;23489;49.600;6.138;2023-02-24T10:50:51;13.70;99.90
37646;DHT22;23489;49.600;6.138;2023-02-24T10:53:21;14.00;99.90
37646;DHT22;23489;49.600;6.138;2023-02-24T10:56:15;13.30;99.90
37646;DHT22;23489;49.600;6.138;2023-02-24T10:59:17;13.20;99.90
37646;DHT22;23489;49.600;6.138;2023-02-24T11:01:53;13.20;99.90
37646;DHT22;23489;49.600;6.138;2023-02-24T11:04:33;13.10;99.90
37646;DHT22;23489;49.600;6.138;2023-02-24T11:07:21;13.10;99.90
37646;DHT22;23489;49.600;6.138;2023-02-24T11:10:02;12.90;99.90
37646;DHT22;23489;49.600;6.138;2023-02-24T11:12:41;12.30;99.90
37646;DHT22;23489;49.600;6.138;2023-02-24T11:15:31;12.30;99.90
37646;DHT22;23489;49.600;6.138;2023-02-24T11:18:19;12.20;99.90
37646;DHT22;23489;49.600;6.138;2023-02-24T11:20:57;11.90;99.90
37646;DHT22;23489;49.600;6.138;2023-02-24T11:23:27;11.60;99.90
37646;DHT22;23489;49.600;6.138;2023-02-24T11:25:58;11.50;99.90
37646;DHT22;23489;49.600;6.138;2023-02-24T11:37:19;10.60;99.90
37646;DHT22;23489;49.600;6.138;2023-02-24T11:39:51;10.00;99.90
37646;DHT22;23489;49.600;6.138;2023-02-24T11:42:26;10.00;99.90
37646;DHT22;23489;49.600;6.138;2023-02-24T11:45:09;10.20;99.90
37646;DHT22;23489;49.600;6.138;2023-02-24T11:47:47;10.30;99.90
37646;DHT22;23489;49.600;6.138;2023-02-24T11:52:53;10.50;99.90
37646;DHT22;23489;49.600;6.138;2023-02-24T11:55:30;10.80;99.90
37646;DHT22;23489;49.600;6.138;2023-02-24T11:58:07;10.50;99.90
37646;DHT22;23489;49.600;6.138;2023-02-24T12:00:41;11.00;99.90
37646;DHT22;23489;49.600;6.138;2023-02-24T12:03:26;11.50;99.90
37646;DHT22;23489;49.600;6.138;2023-02-24T12:05:56;11.90;99.90
37646;DHT22;23489;49.600;6.138;2023-02-24T12:08:29;11.50;99.90
37646;DHT22;23489;49.600;6.138;2023-02-24T12:11:09;11.70;99.90
37646;DHT22;23489;49.600;6.138;2023-02-24T12:13:43;11.40;99.90
37646;DHT22;23489;49.600;6.138;2023-02-24T12:16:16;11.70;99.90
37646;DHT22;23489;49.600;6.138;2023-02-24T12:18:57;12.00;99.90
37646;DHT22;23489;49.600;6.138;2023-02-24T12:21:33;12.20;99.90
37646;DHT22;23489;49.600;6.138;2023-02-24T12:24:00;11.80;99.90
37646;DHT22;23489;49.600;6.138;2023-02-24T12:34:47;11.50;99.90
37646;DHT22;23489;49.600;6.138;2023-02-24T12:43:28;10.50;99.90
37646;DHT22;23489;49.600;6.138;2023-02-24T12:46:04;10.50;99.90
37646;DHT22;23489;49.600;6.138;2023-02-24T12:51:37;11.10;99.90
37646;DHT22;23489;49.600;6.138;2023-02-24T12:54:15;11.20;99.90
37646;DHT22;23489;49.600;6.138;2023-02-24T12:57:04;11.10;99.90
37646;DHT22;23489;49.600;6.138;2023-02-24T12:59:37;11.20;99.90
37646;DHT22;23489;49.600;6.138;2023-02-24T13:02:05;11.00;99.90
37646;DHT22;23489;49.600;6.138;2023-02-24T13:04:55;11.20;99.90
37646;DHT22;23489;49.600;6.138;2023-02-24T13:15:35;10.60;99.90
37646;DHT22;23489;49.600;6.138;2023-02-24T13:18:01;10.80;99.90
37646;DHT22;23489;49.600;6.138;2023-02-24T13:20:33;10.60;99.90
37646;DHT22;23489;49.600;6.138;2023-02-24T13:23:00;10.90;99.90
37646;DHT22;23489;49.600;6.138;2023-02-24T13:25:37;11.20;99.90
37646;DHT22;23489;49.600;6.138;2023-02-24T13:28:05;11.50;99.90
37646;DHT22;23489;49.600;6.138;2023-02-24T13:30:45;11.40;99.90
37646;DHT22;23489;49.600;6.138;2023-02-24T13:35:45;11.00;99.90
37646;DHT22;23489;49.600;6.138;2023-02-24T13:38:35;10.90;99.90
37646;DHT22;23489;49.600;6.138;2023-02-24T13:43:32;10.70;99.90
37646;DHT22;23489;49.600;6.138;2023-02-24T13:46:02;10.70;99.90
37646;DHT22;23489;49.600;6.138;2023-02-24T14:02:41;10.20;99.90
37646;DHT22;23489;49.600;6.138;2023-02-24T14:05:20;10.10;99.90
37646;DHT22;23489;49.600;6.138;2023-02-24T14:07:49;10.10;99.90
37646;DHT22;23489;49.600;6.138;2023-02-24T14:10:18;10.10;99.90
37646;DHT22;23489;49.600;6.138;2023-02-24T14:12:45;10.00;99.90
37646;DHT22;23489;49.600;6.138;2023-02-24T14:15:20;9.90;99.90
37646;DHT22;23489;49.600;6.138;2023-02-24T14:17:56;10.00;99.90
37646;DHT22;23489;49.600;6.138;2023-02-24T14:20:23;9.90;99.90
37646;DHT22;23489;49.600;6.138;2023-02-24T14:22:51;9.80;99.90
37646;DHT22;23489;49.600;6.138;2023-02-24T14:25:21;9.80;99.90
37646;DHT22;23489;49.600;6.138;2023-02-24T14:27:50;9.70;99.90
37646;DHT22;23489;49.600;6.138;2023-02-24T14:30:37;9.60;99.90
37646;DHT22;23489;49.600;6.138;2023-02-24T14:33:04;9.70;99.90
37646;DHT22;23489;49.600;6.138;2023-02-24T14:37:57;9.60;99.90
37646;DHT22;23489;49.600;6.138;2023-02-24T14:40:23;9.80;99.90
37646;DHT22;23489;49.600;6.138;2023-02-24T14:42:51;9.90;99.90
37646;DHT22;23489;49.600;6.138;2023-02-24T14:45:20;10.10;99.90
37646;DHT22;23489;49.600;6.138;2023-02-24T14:47:46;10.20;99.90
37646;DHT22;23489;49.600;6.138;2023-02-24T14:50:17;10.30;99.90
37646;DHT22;23489;49.600;6.138;2023-02-24T14:52:54;10.40;99.90
37646;DHT22;23489;49.600;6.138;2023-02-24T14:55:25;10.30;99.90
37646;DHT22;23489;49.600;6.138;2023-02-24T15:00:46;10.00;99.90
37646;DHT22;23489;49.600;6.138;2023-02-24T15:03:29;10.00;99.90
37646;DHT22;23489;49.600;6.138;2023-02-24T15:05:57;10.10;99.90
37646;DHT22;23489;49.600;6.138;2023-02-24T15:08:40;10.10;99.90
37646;DHT22;23489;49.600;6.138;2023-02-24T15:11:19;10.00;99.90
37646;DHT22;23489;49.600;6.138;2023-02-24T15:18:57;9.90;99.90
37646;DHT22;23489;49.600;6.138;2023-02-24T15:21:38;9.70;99.90
37646;DHT22;23489;49.600;6.138;2023-02-24T15:24:19;9.60;99.90
37646;DHT22;23489;49.600;6.138;2023-02-24T15:26:59;9.60;99.90
37646;DHT22;23489;49.600;6.138;2023-02-24T15:29:27;9.50;99.90
37646;DHT22;23489;49.600;6.138;2023-02-24T15:31:54;9.40;99.90
37646;DHT22;23489;49.600;6.138;2023-02-24T15:34:24;9.30;99.90
37646;DHT22;23489;49.600;6.138;2023-02-24T15:36:54;9.30;99.90
37646;DHT22;23489;49.600;6.138;2023-02-24T15:39:22;9.30;99.90
37646;DHT22;23489;49.600;6.138;2023-02-24T15:41:50;9.30;99.20
37646;DHT22;23489;49.600;6.138;2023-02-24T15:44:31;9.20;99.10
37646;DHT22;23489;49.600;6.138;2023-02-24T15:46:58;9.20;98.80
37646;DHT22;23489;49.600;6.138;2023-02-24T15:49:24;9.10;98.20
37646;DHT22;23489;49.600;6.138;2023-02-24T15:51:52;9.10;97.50
37646;DHT22;23489;49.600;6.138;2023-02-24T15:54:27;9.00;97.00
37646;DHT22;23489;49.600;6.138;2023-02-24T15:56:56;8.90;97.60
37646;DHT22;23489;49.600;6.138;2023-02-24T15:59:22;8.90;98.30
37646;DHT22;23489;49.600;6.138;2023-02-24T16:01:48;8.90;98.40
37646;DHT22;23489;49.600;6.138;2023-02-24T16:04:16;8.90;98.20
37646;DHT22;23489;49.600;6.138;2023-02-24T16:06:43;8.80;98.50
37646;DHT22;23489;49.600;6.138;2023-02-24T16:09:31;8.80;98.70
37646;DHT22;23489;49.600;6.138;2023-02-24T16:12:06;8.80;98.70
37646;DHT22;23489;49.600;6.138;2023-02-24T16:14:33;8.80;98.80
37646;DHT22;23489;49.600;6.138;2023-02-24T16:17:05;8.80;99.00
37646;DHT22;23489;49.600;6.138;2023-02-24T16:19:33;8.80;99.40
37646;DHT22;23489;49.600;6.138;2023-02-24T16:21:59;8.80;99.20
37646;DHT22;23489;49.600;6.138;2023-02-24T16:24:24;8.80;99.10
37646;DHT22;23489;49.600;6.138;2023-02-24T16:26:50;8.70;99.30
37646;DHT22;23489;49.600;6.138;2023-02-24T16:29:16;8.70;99.30
37646;DHT22;23489;49.600;6.138;2023-02-24T16:31:41;8.60;99.30
37646;DHT22;23489;49.600;6.138;2023-02-24T16:34:07;8.60;99.40
37646;DHT22;23489;49.600;6.138;2023-02-24T16:36:33;8.50;99.10
37646;DHT22;23489;49.600;6.138;2023-02-24T16:38:58;8.50;99.40
37646;DHT22;23489;49.600;6.138;2023-02-24T16:41:25;8.40;99.20
37646;DHT22;23489;49.600;6.138;2023-02-24T16:43:51;8.40;99.30
37646;DHT22;23489;49.600;6.138;2023-02-24T16:46:19;8.30;99.60
37646;DHT22;23489;49.600;6.138;2023-02-24T16:48:48;8.20;99.80
37646;DHT22;23489;49.600;6.138;2023-02-24T16:51:15;8.10;99.90
37646;DHT22;23489;49.600;6.138;2023-02-24T16:53:41;8.10;99.90
37646;DHT22;23489;49.600;6.138;2023-02-24T16:56:08;8.00;99.90
37646;DHT22;23489;49.600;6.138;2023-02-24T16:58:34;8.00;99.90
37646;DHT22;23489;49.600;6.138;2023-02-24T17:01:00;8.00;99.90
37646;DHT22;23489;49.600;6.138;2023-02-24T17:03:46;7.90;99.90
37646;DHT22;23489;49.600;6.138;2023-02-24T17:06:13;7.80;99.90
37646;DHT22;23489;49.600;6.138;2023-02-24T17:08:38;7.80;99.90
37646;DHT22;23489;49.600;6.138;2023-02-24T17:11:10;7.70;99.90
37646;DHT22;23489;49.600;6.138;2023-02-24T17:13:36;7.70;99.90
37646;DHT22;23489;49.600;6.138;2023-02-24T17:16:02;7.60;99.90
37646;DHT22;23489;49.600;6.138;2023-02-24T17:18:28;7.50;99.90
37646;DHT22;23489;49.600;6.138;2023-02-24T17:20:54;7.50;99.90
37646;DHT22;23489;49.600;6.138;2023-02-24T17:23:20;7.40;99.90
37646;DHT22;23489;49.600;6.138;2023-02-24T17:25:52;7.40;99.90
37646;DHT22;23489;49.600;6.138;2023-02-24T17:28:19;7.30;99.90
37646;DHT22;23489;49.600;6.138;2023-02-24T17:30:45;7.30;99.90
37646;DHT22;23489;49.600;6.138;2023-02-24T17:33:11;7.20;99.90
37646;DHT22;23489;49.600;6.138;2023-02-24T17:35:39;7.20;99.90
37646;DHT22;23489;49.600;6.138;2023-02-24T17:38:12;7.20;99.90
37646;DHT22;23489;49.600;6.138;2023-02-24T17:40:42;7.20;99.90
37646;DHT22;23489;49.600;6.138;2023-02-24T17:43:07;7.20;99.90
37646;DHT22;23489;49.600;6.138;2023-02-24T17:45:33;7.20;99.90
37646;DHT22;23489;49.600;6.138;2023-02-24T17:47:59;7.20;99.90
37646;DHT22;23489;49.600;6.138;2023-02-24T17:50:24;7.20;99.90
37646;DHT22;23489;49.600;6.138;2023-02-24T17:52:50;7.20;99.90
37646;DHT22;23489;49.600;6.138;2023-02-24T17:55:16;7.20;99.90
37646;DHT22;23489;49.600;6.138;2023-02-24T17:57:41;7.20;99.90
37646;DHT22;23489;49.600;6.138;2023-02-24T18:00:08;7.20;99.90
37646;DHT22;23489;49.600;6.138;2023-02-24T18:02:40;7.20;99.90
37646;DHT22;23489;49.600;6.138;2023-02-24T18:05:06;7.20;99.90
37646;DHT22;23489;49.600;6.138;2023-02-24T18:07:32;7.20;99.90
37646;DHT22;23489;49.600;6.138;2023-02-24T18:09:58;7.20;99.90
37646;DHT22;23489;49.600;6.138;2023-02-24T18:12:24;7.10;99.90
37646;DHT22;23489;49.600;6.138;2023-02-24T18:14:50;7.10;99.90
37646;DHT22;23489;49.600;6.138;2023-02-24T18:17:17;7.10;99.90
37646;DHT22;23489;49.600;6.138;2023-02-24T18:19:43;7.10;99.90